Flight Track Log - Related Links

Times and Time Zones

All times are in EDT time to prevent confusion due to time zone crossing. See the SKW6371 flight status page for this flight to view local times or setup timezone preferences in your user account.


Time Position Orientation Groundspeed Altitude Reporting Facility
EDT Latitude Longitude Course Direction KTS MPH feet Rate Location/Type
Tue 09:37:15 AM 46.9547 -114.1625 312° West 191 220 5,000  Level Salt Lake Center
Tue 09:38:16 AM 46.9975 -114.2333 312° West 225 259 7,600 2,705 Climbing Salt Lake Center
Tue 09:39:17 AM 46.9994 -114.3228 272° West 239 275 10,500 2,341 Climbing Salt Lake Center
Tue 09:40:19 AM 46.9372 -114.2969 164° South 257 296 12,400 1,463 Climbing Salt Lake Center
Tue 09:41:20 AM 46.8822 -114.2097 133° Southeast 295 339 13,500 1,131 Climbing Salt Lake Center
Tue 09:42:21 AM 46.8167 -114.0978 131° Southeast 342 394 14,700 1,463 Climbing Salt Lake Center
Tue 09:43:23 AM 46.7511 -113.9878 131° Southeast 358 412 16,500 1,512 Climbing Salt Lake Center
Tue 09:44:24 AM 46.6853 -113.8753 130° Southeast 365 420 17,800 1,230 Climbing Salt Lake Center
Tue 09:45:25 AM 46.6100 -113.7497 131° Southeast 385 443 19,000 1,131 Climbing Salt Lake Center
Tue 09:46:26 AM 46.5361 -113.6289 132° Southeast 402 463 20,100 976 Climbing Salt Lake Center
Tue 09:47:28 AM 46.4703 -113.5194 131° Southeast 404 465 21,000 976 Climbing Salt Lake Center
Tue 09:48:29 AM 46.3950 -113.3947 131° Southeast 410 472 22,100 1,220 Climbing Salt Lake Center
Tue 09:49:31 AM 46.3042 -113.2469 132° Southeast 414 476 23,500 1,220 Climbing Salt Lake Center
Tue 09:50:32 AM 46.2264 -113.1172 131° Southeast 419 482 24,600 885 Climbing Salt Lake Center
Tue 09:51:33 AM 46.1483 -112.9894 131° Southeast 416 479 25,300 585 Climbing Salt Lake Center
Tue 09:52:35 AM 46.0672 -112.8544 131° Southeast 435 501 25,800 488 Climbing Salt Lake Center
Tue 09:53:36 AM 45.9833 -112.7200 132° Southeast 440 506 26,300 488 Climbing Salt Lake Center
Tue 09:54:38 AM 45.8975 -112.5831 132° Southeast 450 518 26,800 488 Climbing Salt Lake Center
Tue 09:55:39 AM 45.8106 -112.4444 132° Southeast 458 527 27,300 488 Climbing Salt Lake Center
Tue 09:56:41 AM 45.7231 -112.3053 132° Southeast 461 531 27,800 537 Climbing Salt Lake Center
Tue 09:57:42 AM 45.6283 -112.1556 132° Southeast 462 532 28,400 537 Climbing Salt Lake Center
Tue 09:58:44 AM 45.5394 -112.0150 132° Southeast 466 536 28,900 488 Climbing Salt Lake Center
Tue 09:59:45 AM 45.4494 -111.8761 133° Southeast 467 537 29,400 488 Climbing Salt Lake Center
Tue 10:00:47 AM 45.3594 -111.7353 132° Southeast 471 542 29,900 488 Climbing Salt Lake Center
Tue 10:01:48 AM 45.2706 -111.5964 132° Southeast 471 542 30,400 537 Climbing Salt Lake Center
Tue 10:02:50 AM 45.1803 -111.4572 133° Southeast 471 542 31,000 537 Climbing Salt Lake Center
Tue 10:03:51 AM 45.0900 -111.3192 133° Southeast 471 542 31,500 488 Climbing Salt Lake Center
Tue 10:04:53 AM 45.0000 -111.1811 133° Southeast 471 542 32,000 488 Climbing Salt Lake Center
Tue 10:05:54 AM 44.9092 -111.0447 133° Southeast 471 542 32,500 488 Climbing Salt Lake Center
Tue 10:06:56 AM 44.8131 -110.8981 133° Southeast 469 540 33,000 244 Climbing Salt Lake Center
Tue 10:07:57 AM 44.7211 -110.7617 133° Southeast 472 543 33,000  Level Salt Lake Center
Tue 10:08:59 AM 44.6278 -110.6231 133° Southeast 478 550 33,000  Level Salt Lake Center
Tue 10:10:00 AM 44.5433 -110.4922 132° Southeast 480 552 33,000  Level Salt Lake Center
Tue 10:11:02 AM 44.4506 -110.3558 134° Southeast 480 552 33,000  Level Salt Lake Center
Tue 10:12:03 AM 44.3594 -110.2183 133° Southeast 480 552 33,000  Level Salt Lake Center
Tue 10:13:05 AM 44.2678 -110.0867 134° Southeast 472 543 33,000  Level Salt Lake Center
Tue 10:14:06 AM 44.1764 -109.9514 133° Southeast 473 544 33,000  Level Salt Lake Center
Tue 10:15:08 AM 44.0844 -109.8164 133° Southeast 475 547 33,000  Level Salt Lake Center
Tue 10:16:10 AM 43.9753 -109.6583 134° Southeast 474 545 33,000  Level Salt Lake Center
Tue 10:17:11 AM 43.8833 -109.5269 134° Southeast 474 545 33,000  Level Salt Lake Center
Tue 10:18:13 AM 43.7889 -109.3953 135° Southeast 469 540 33,000  Level Salt Lake Center
Tue 10:19:14 AM 43.6989 -109.2678 134° Southeast 466 536 33,000  Level Salt Lake Center
Tue 10:20:16 AM 43.6081 -109.1392 134° Southeast 467 537 33,000  Level Salt Lake Center
Tue 10:21:18 AM 43.5181 -109.0122 134° Southeast 467 537 33,000  Level Salt Lake Center
Tue 10:22:19 AM 43.4264 -108.8828 134° Southeast 468 539 33,000  Level Salt Lake Center
Tue 10:23:21 AM 43.3353 -108.7542 134° Southeast 469 540 33,000  Level Salt Lake Center
Tue 10:24:23 AM 43.2444 -108.6286 135° Southeast 468 539 33,000  Level Salt Lake Center
Tue 10:25:25 AM 43.1350 -108.4764 135° Southeast 468 539 33,000  Level Salt Lake Center
Tue 10:26:26 AM 43.0428 -108.3492 135° Southeast 469 540 33,000  Level Salt Lake Center
Tue 10:27:28 AM 42.9517 -108.2219 134° Southeast 469 540 33,000  Level Salt Lake Center
Tue 10:28:30 AM 42.8522 -108.0850 135° Southeast 470 541 33,000  Level Salt Lake Center
Tue 10:29:31 AM 42.7636 -107.9661 135° Southeast 469 540 33,000  Level Salt Lake Center
Tue 10:30:33 AM 42.6603 -107.8256 135° Southeast 470 541 33,000  Level Salt Lake Center
Tue 10:31:35 AM 42.5703 -107.7039 135° Southeast 471 542 33,000  Level Salt Lake Center
Tue 10:32:37 AM 42.4811 -107.5831 135° Southeast 472 543 33,000  Level Salt Lake Center
Tue 10:33:39 AM 42.3764 -107.4447 136° Southeast 473 544 33,000  Level Salt Lake Center
Tue 10:34:31 AM 42.3017 -107.3425 135° Southeast 475 547 33,000  Level Denver Center
Tue 10:35:33 AM 42.1900 -107.2111 139° Southeast 475 547 33,000  Level Denver Center
Tue 10:36:35 AM 42.0933 -107.1006 140° Southeast 475 547 33,000  Level Denver Center
Tue 10:37:37 AM 41.9797 -106.9694 139° Southeast 478 550 33,000  Level Denver Center
Tue 10:38:39 AM 41.8822 -106.8592 140° Southeast 478 550 33,000  Level Denver Center
Tue 10:39:41 AM 41.7678 -106.7297 140° Southeast 478 550 33,000  Level Denver Center
Tue 10:40:43 AM 41.6694 -106.6181 140° Southeast 481 554 33,000  Level Denver Center
Tue 10:41:45 AM 41.5708 -106.5064 140° Southeast 481 554 33,000  Level Denver Center
Tue 10:42:48 AM 41.4558 -106.3789 140° Southeast 481 554 33,000  Level Denver Center
Tue 10:43:50 AM 41.3564 -106.2683 140° Southeast 482 555 33,000  Level Denver Center
Tue 10:44:52 AM 41.2411 -106.1383 140° Southeast 484 557 33,000  Level Denver Center
Tue 10:45:54 AM 41.1411 -106.0281 140° Southeast 484 557 33,000  Level Denver Center
Tue 10:46:56 AM 41.0244 -105.9003 140° Southeast 485 558 33,000 -1,065 Level Denver Center
Tue 10:47:58 AM 40.9142 -105.7794 140° Southeast 491 565 30,800 -2,274 Descending Denver Center
Tue 10:49:00 AM 40.8092 -105.6639 140° Southeast 492 566 28,300 -2,419 Descending Denver Center
Tue 10:50:02 AM 40.7069 -105.5536 141° Southeast 482 555 25,800 -2,274 Descending Denver Center
Tue 10:51:04 AM 40.6103 -105.4450 140° Southeast 466 536 23,600 -1,839 Descending Denver Center
Tue 10:52:06 AM 40.5381 -105.3186 127° Southeast 436 502 22,000 -1,694 Descending Denver Center
Tue 10:53:08 AM 40.4478 -105.2017 135° Southeast 414 476 20,100 -1,839 Descending Denver Center
Tue 10:54:10 AM 40.3536 -105.1256 148° Southeast 373 429 18,200 -1,694 Descending Denver Center
Tue 10:55:12 AM 40.2658 -105.0556 149° Southeast 368 423 16,600 -1,344 Descending Denver Center
Tue 10:56:15 AM 40.1786 -104.9858 149° Southeast 339 390 15,400 -1,008 Descending Denver Center
Tue 10:57:17 AM 40.1003 -104.9236 149° Southeast 331 381 14,500 -774 Descending Denver Center
Tue 10:58:19 AM 40.0256 -104.8636 148° Southeast 281 323 13,800 -968 Descending Denver Center
Tue 10:59:21 AM 39.9617 -104.8131 149° Southeast 271 312 12,500 -1,113 Descending Denver Center
Tue 11:00:23 AM 39.8933 -104.8078 177° South 231 266 11,500 -677 Descending Denver Center
Tue 11:01:25 AM 39.8286 -104.8086 181° South 231 266 11,100 -194 Descending Denver Center
Tue 11:02:27 AM 39.7583 -104.8106 181° South 233 268 11,100 -387 Level Denver Center
Tue 11:03:29 AM 39.6933 -104.8117 181° South 235 270 10,300 -532 Descending Denver Center
Tue 11:04:31 AM 39.6225 -104.8142 182° South 235 270 10,000 -145 Descending Denver Center
Tue 11:05:33 AM 39.5550 -104.8164 181° South 241 277 10,000  Level Denver Center
Tue 11:06:35 AM 39.4842 -104.8192 182° South 238 274 10,000  Level Denver Center
Tue 11:07:37 AM 39.4228 -104.8000 166° South 244 281 10,000  Level Denver Center
Tue 11:08:39 AM 39.4347 -104.7194 79° East 249 287 10,000  Level Denver Center
Tue 11:09:42 AM 39.5042 -104.6897 18° North 244 281 10,000  Level Denver Center
Tue 11:10:44 AM 39.5642 -104.6919 358° North 215 247 10,000 -48 Level Denver Center
Tue 11:11:46 AM 39.6261 -104.6903 North 210 242 9,900 -581 Descending Denver Center
Tue 11:12:48 AM 39.6822 -104.6897 360° North 206 237 8,800 -1,065 Descending Denver Center
Tue 11:13:50 AM 39.7411 -104.6886 North 201 231 7,700 -968 Descending Denver Center
Tue 11:14:52 AM 39.7897 -104.6886 360° North 180 207 6,800 -823 Descending Denver Center
Tue 11:15:54 AM 39.8336 -104.6872 North 152 175 6,000 -726 Descending Denver Center
Tue 11:16:56 AM 39.8783 -104.6867 North 151 174 5,300 -677 Descending Denver Center

Login

Don't have an account? Register now (free) for customized features, flight alerts, and more!